createdAt,value
2022-08-14T00:02:27.857Z,97437.34
2022-08-14T00:05:00.447Z,97437.75
2022-08-14T00:07:29.251Z,97442.16
2022-08-14T00:10:49.821Z,97441.31
2022-08-14T00:12:56.440Z,97446.91
2022-08-14T00:15:25.789Z,97452.50
2022-08-14T00:17:59.085Z,97455.28
2022-08-14T00:20:36.000Z,97460.81
2022-08-14T00:23:16.458Z,97458.84
2022-08-14T00:25:59.174Z,97462.94
2022-08-14T00:28:37.002Z,97461.13
2022-08-14T00:31:08.173Z,97474.72
2022-08-14T00:33:50.721Z,97473.22
2022-08-14T00:36:39.280Z,97477.97
2022-08-14T00:39:18.229Z,97478.81
2022-08-14T00:41:48.468Z,97479.31
2022-08-14T00:44:26.680Z,97478.59
2022-08-14T00:47:01.571Z,97475.09
2022-08-14T00:49:42.833Z,97481.78
2022-08-14T00:52:17.764Z,97495.84
2022-08-14T00:54:47.831Z,97500.41
2022-08-14T00:57:16.744Z,97504.69
2022-08-14T00:59:45.914Z,97500.22
2022-08-14T01:02:16.651Z,97508.28
2022-08-14T01:04:54.440Z,97505.88
2022-08-14T01:07:24.281Z,97518.56
2022-08-14T01:09:57.540Z,97518.97
2022-08-14T01:12:29.908Z,97515.69
2022-08-14T01:15:00.080Z,97518.03
2022-08-14T01:17:51.981Z,97519.72
2022-08-14T01:20:41.254Z,97520.78
2022-08-14T01:23:16.584Z,97521.31
2022-08-14T01:25:49.132Z,97521.53
2022-08-14T01:28:46.182Z,97519.56
2022-08-14T01:31:36.884Z,97527.06
2022-08-14T01:35:17.791Z,97525.59
2022-08-14T01:36:56.116Z,97535.88
2022-08-14T01:39:24.693Z,97532.56
2022-08-14T01:42:01.683Z,97544.06
2022-08-14T01:44:34.495Z,97543.22
2022-08-14T01:47:21.923Z,97541.31
2022-08-14T01:49:59.347Z,97543.94
2022-08-14T01:52:58.019Z,97547.97
2022-08-14T01:55:21.362Z,97558.63
2022-08-14T01:58:01.315Z,97549.81
2022-08-14T02:00:40.675Z,97559.34
2022-08-14T02:03:10.087Z,97555.41
2022-08-14T02:05:39.456Z,97558.09
2022-08-14T02:08:10.316Z,97558.72
2022-08-14T02:10:47.122Z,97560.31
2022-08-14T02:13:17.517Z,97567.31
2022-08-14T02:15:48.461Z,97560.97
2022-08-14T02:18:18.244Z,97560.97
2022-08-14T02:20:51.360Z,97559.84
2022-08-14T02:23:29.025Z,97569.59
2022-08-14T02:26:25.173Z,97579.72
2022-08-14T02:28:57.565Z,97573.13
2022-08-14T02:31:41.860Z,97580.31
2022-08-14T02:34:22.521Z,97579.78
2022-08-14T02:37:04.688Z,97586.81
2022-08-14T02:39:37.723Z,97575.25
2022-08-14T02:42:13.108Z,97582.69
2022-08-14T02:44:49.206Z,97579.25
2022-08-14T02:47:20.515Z,97576.50
2022-08-14T02:49:54.923Z,97573.97
2022-08-14T02:52:57.733Z,97586.31
2022-08-14T02:55:19.766Z,97581.06
2022-08-14T02:57:57.817Z,97589.69
2022-08-14T03:00:33.456Z,97590.03
2022-08-14T03:03:07.846Z,97587.03
2022-08-14T03:05:41.375Z,97593.22
2022-08-14T04:08:30.837Z,97603.38
2022-08-14T04:11:02.881Z,97612.34
2022-08-14T04:13:41.158Z,97600.03
2022-08-14T04:16:19.091Z,97604.53
2022-08-14T04:18:51.917Z,97610.88
2022-08-14T04:21:24.658Z,97605.03
2022-08-14T04:23:57.252Z,97612.50
2022-08-14T04:42:01.905Z,97615.84
2022-08-14T04:44:36.945Z,97616.28
2022-08-14T04:47:25.124Z,97615.25
2022-08-14T04:49:56.892Z,97615.66
2022-08-14T04:52:27.046Z,97617.25
2022-08-14T04:54:56.539Z,97619.03
2022-08-14T04:57:26.386Z,97610.44
2022-08-14T04:59:58.376Z,97615.78
2022-08-14T05:02:29.337Z,97621.97
2022-08-14T05:05:04.110Z,97615.69
2022-08-14T05:07:54.055Z,97607.19
2022-08-14T05:10:25.629Z,97615.50
2022-08-14T05:13:13.234Z,97611.50
2022-08-14T05:15:45.951Z,97618.28
2022-08-14T05:19:16.883Z,97621.06
2022-08-14T05:22:00.516Z,97612.50
2022-08-14T05:24:00.577Z,97615.13
2022-08-14T05:26:29.875Z,97617.50
2022-08-14T05:28:59.440Z,97612.50
2022-08-14T05:31:39.436Z,97616.84
2022-08-14T05:34:10.994Z,97615.72
2022-08-14T05:36:41.239Z,97616.22
2022-08-14T05:39:10.228Z,97616.63
2022-08-14T05:41:53.050Z,97609.38
2022-08-14T05:44:26.680Z,97613.59
2022-08-14T05:46:59.632Z,97623.13
2022-08-14T05:49:33.217Z,97628.25
2022-08-14T05:52:03.787Z,97630.22
2022-08-14T06:06:54.646Z,97617.94
2022-08-14T06:09:27.447Z,97614.25
2022-08-14T06:11:59.787Z,97611.78
2022-08-14T06:14:30.441Z,97605.88
2022-08-14T06:17:00.067Z,97607.94
2022-08-14T06:19:29.280Z,97604.91
2022-08-14T06:21:59.512Z,97598.56
2022-08-14T06:24:30.237Z,97601.63
2022-08-14T06:27:06.432Z,97598.97
2022-08-14T06:29:40.576Z,97597.81
2022-08-14T06:32:38.305Z,97591.69
2022-08-14T06:35:04.755Z,97594.94
2022-08-14T06:37:52.751Z,97593.56
2022-08-14T06:40:28.648Z,97585.66
2022-08-14T06:43:03.987Z,97584.59
2022-08-14T06:45:34.801Z,97584.81
2022-08-14T06:48:06.303Z,97586.53
2022-08-14T06:50:42.285Z,97582.13
2022-08-14T06:53:15.627Z,97580.84
2022-08-14T06:55:58.167Z,97568.19
2022-08-14T06:58:31.879Z,97580.81
2022-08-14T07:01:26.801Z,97583.84
2022-08-14T07:04:23.126Z,97578.19
2022-08-14T07:06:59.492Z,97578.63
2022-08-14T07:09:40.629Z,97571.72
2022-08-14T07:12:56.316Z,97575.94
2022-08-14T07:15:09.632Z,97575.28
2022-08-14T07:17:52.404Z,97568.94
2022-08-14T07:20:31.442Z,97569.22
2022-08-14T07:23:09.281Z,97572.00
2022-08-14T07:25:51.589Z,97561.81
2022-08-14T07:28:26.432Z,97557.66
2022-08-14T07:31:05.197Z,97554.41
2022-08-14T07:33:41.832Z,97548.19
2022-08-14T07:36:27.036Z,97551.13
2022-08-14T07:39:12.532Z,97549.94
2022-08-14T07:41:42.944Z,97542.84
2022-08-14T07:44:29.438Z,97536.31
2022-08-14T07:47:03.745Z,97533.22
2022-08-14T07:49:35.096Z,97531.56
2022-08-14T07:52:05.621Z,97530.06
2022-08-14T07:54:37.358Z,97534.38
2022-08-14T07:57:12.459Z,97530.84
2022-08-14T07:59:51.309Z,97529.66
2022-08-14T08:02:21.883Z,97516.41
2022-08-14T08:04:59.381Z,97512.25
2022-08-14T08:07:31.986Z,97509.97
2022-08-14T08:10:46.208Z,97510.81
2022-08-14T08:13:24.295Z,97503.63
2022-08-14T08:15:57.652Z,97511.88
2022-08-14T08:18:30.919Z,97501.31
2022-08-14T08:21:00.643Z,97494.28
2022-08-14T08:23:40.652Z,97497.66
2022-08-14T08:26:12.743Z,97501.25
2022-08-14T08:28:43.892Z,97499.38
2022-08-14T08:31:13.713Z,97493.44
2022-08-14T08:33:49.453Z,97486.00
2022-08-14T08:36:19.248Z,97488.63
2022-08-14T09:03:44.831Z,97431.03
2022-08-14T09:07:01.233Z,97423.97
2022-08-14T09:09:05.473Z,97413.09
2022-08-14T09:11:34.896Z,97418.13
2022-08-14T09:14:05.867Z,97423.13
2022-08-14T09:16:35.480Z,97409.00
2022-08-14T09:19:05.635Z,97399.78
2022-08-14T09:21:36.238Z,97396.75
2022-08-14T09:24:26.508Z,97395.50
2022-08-14T09:26:56.979Z,97390.16
2022-08-14T09:29:28.803Z,97387.75
2022-08-14T09:32:02.543Z,97382.53
2022-08-14T09:34:58.359Z,97386.84
2022-08-14T09:37:40.788Z,97391.09
2022-08-14T09:40:29.443Z,97375.91
2022-08-14T09:43:33.910Z,97382.78
2022-08-14T09:46:10.337Z,97381.13
2022-08-14T09:48:40.268Z,97365.16
2022-08-14T09:51:25.505Z,97366.59
2022-08-14T09:54:22.683Z,97373.28
2022-08-14T09:56:57.203Z,97368.94
2022-08-14T09:59:32.112Z,97369.75
2022-08-14T10:02:04.686Z,97360.59
2022-08-14T10:04:38.443Z,97368.53
2022-08-14T10:07:12.405Z,97363.59
2022-08-14T10:10:00.011Z,97368.00
2022-08-14T10:12:54.809Z,97366.09
2022-08-14T10:15:27.816Z,97365.44
2022-08-14T10:30:44.732Z,97339.66
2022-08-14T10:33:28.712Z,97339.66
2022-08-14T10:36:00.388Z,97347.16
2022-08-14T10:38:34.911Z,97343.03
2022-08-14T10:41:14.656Z,97347.03
2022-08-14T10:43:46.991Z,97336.69
2022-08-14T10:47:36.587Z,97340.75
2022-08-14T10:49:17.887Z,97335.19
2022-08-14T10:51:57.562Z,97336.63
2022-08-14T10:54:42.675Z,97344.50
2022-08-14T10:57:36.778Z,97337.69
2022-08-14T11:00:20.568Z,97332.13
2022-08-14T11:03:26.848Z,97339.84
2022-08-14T11:06:17.788Z,97333.56
2022-08-14T11:08:48.430Z,97332.50
2022-08-14T11:11:21.830Z,97320.22
2022-08-14T11:13:51.851Z,97327.44
2022-08-14T11:16:21.578Z,97326.41
2022-08-14T12:14:29.260Z,97352.06
2022-08-14T12:17:12.576Z,97357.03
2022-08-14T12:20:03.416Z,97370.28
2022-08-14T12:22:42.430Z,97369.56
2022-08-14T12:25:20.917Z,97376.91
2022-08-14T12:28:01.195Z,97383.34
2022-08-14T12:30:39.718Z,97384.25
2022-08-14T12:33:32.983Z,97361.81
2022-08-14T12:36:06.341Z,97372.84
2022-08-14T12:38:44.381Z,97380.22
2022-08-14T12:41:21.333Z,97391.41
2022-08-14T12:43:52.615Z,97392.44
2022-08-14T12:46:32.779Z,97391.25
2022-08-14T13:50:57.087Z,97489.34
2022-08-14T13:53:33.155Z,97487.53
2022-08-14T13:56:04.657Z,97479.56
2022-08-14T13:58:37.795Z,97463.25
2022-08-14T14:01:09.098Z,97466.91
2022-08-14T14:03:40.763Z,97472.25
2022-08-14T14:06:10.641Z,97475.84
2022-08-14T14:08:48.303Z,97475.00
2022-08-14T14:11:26.486Z,97464.38
2022-08-14T14:14:06.019Z,97472.50
2022-08-14T14:16:41.876Z,97472.69
2022-08-14T14:19:11.327Z,97470.72
2022-08-14T14:21:42.112Z,97466.19
2022-08-14T14:24:15.474Z,97460.41
2022-08-14T14:26:51.282Z,97463.75
2022-08-14T14:29:24.263Z,97471.34
2022-08-14T14:31:58.524Z,97471.69
2022-08-14T14:34:30.811Z,97464.41
2022-08-14T14:37:04.778Z,97473.69
2022-08-14T14:40:50.163Z,97479.06
2022-08-14T14:42:32.179Z,97492.16
2022-08-14T14:45:17.010Z,97485.97
2022-08-14T14:47:50.071Z,97492.00
2022-08-14T14:50:29.327Z,97500.56
2022-08-14T14:53:12.388Z,97499.91
2022-08-14T14:56:47.948Z,97501.25
2022-08-14T14:58:37.052Z,97488.28
2022-08-14T15:01:08.681Z,97495.28
2022-08-14T15:03:42.720Z,97496.63
2022-08-14T15:06:13.051Z,97499.75
2022-08-14T15:08:56.744Z,97504.09
2022-08-14T15:11:31.980Z,97504.09
2022-08-14T15:14:02.222Z,97502.91
2022-08-14T15:16:51.790Z,97508.91
2022-08-14T15:19:24.329Z,97513.88
2022-08-14T15:21:53.492Z,97523.84
2022-08-14T15:24:24.395Z,97520.66
2022-08-14T15:27:01.507Z,97509.53
2022-08-14T15:29:32.099Z,97526.09
2022-08-14T15:32:01.848Z,97536.34
2022-08-14T15:34:45.808Z,97545.19
2022-08-14T15:37:23.383Z,97544.34
2022-08-14T15:39:53.012Z,97551.69
2022-08-14T15:42:24.653Z,97550.66
2022-08-14T15:44:59.504Z,97565.59
2022-08-14T15:47:33.655Z,97554.31
2022-08-14T15:50:09.741Z,97556.75
2022-08-14T15:52:39.345Z,97561.41
2022-08-14T15:55:14.890Z,97559.72
2022-08-14T15:58:02.232Z,97559.91
2022-08-14T16:00:54.927Z,97565.78
2022-08-14T16:03:35.195Z,97559.78
2022-08-14T16:06:15.670Z,97559.47
2022-08-14T16:08:59.013Z,97560.78
2022-08-14T16:11:33.290Z,97556.97
2022-08-14T16:14:06.716Z,97552.09
2022-08-14T16:16:51.394Z,97543.56
2022-08-14T16:19:29.753Z,97543.38
2022-08-14T16:22:59.525Z,97544.72
2022-08-14T16:24:57.820Z,97534.44
2022-08-14T16:27:40.907Z,97532.28
2022-08-14T16:30:25.317Z,97539.78
2022-08-14T16:33:02.715Z,97537.91
2022-08-14T16:35:42.765Z,97532.44
2022-08-14T16:38:45.716Z,97531.88
2022-08-14T16:41:23.268Z,97539.22
2022-08-14T16:44:06.283Z,97539.94
2022-08-14T16:46:57.270Z,97553.38
2022-08-14T16:50:03.538Z,97558.16
2022-08-14T16:52:25.626Z,97571.06
2022-08-14T16:55:11.144Z,97567.31
2022-08-14T16:57:58.599Z,97583.94
2022-08-14T17:00:45.314Z,97590.09
2022-08-14T17:03:15.865Z,97597.97
2022-08-14T17:05:46.942Z,97593.63
2022-08-14T17:08:41.353Z,97602.63
2022-08-14T17:11:12.913Z,97606.38
2022-08-14T17:13:58.829Z,97617.44
2022-08-14T17:16:38.459Z,97611.75
2022-08-14T17:19:13.358Z,97614.22
2022-08-14T17:21:47.487Z,97605.41
2022-08-14T17:24:56.206Z,97605.72
2022-08-14T17:27:11.505Z,97616.00
2022-08-14T17:32:56.749Z,97619.03
2022-08-14T17:35:57.439Z,97620.09
2022-08-14T17:38:38.865Z,97623.59
2022-08-14T17:41:23.173Z,97627.06
2022-08-14T17:43:54.900Z,97626.78
2022-08-14T17:46:43.190Z,97638.06
2022-08-14T17:49:17.963Z,97639.22
2022-08-14T17:52:17.691Z,97651.00
2022-08-14T17:54:52.595Z,97645.56
2022-08-14T17:57:35.443Z,97648.75
2022-08-14T18:00:18.643Z,97652.16
2022-08-14T18:02:50.567Z,97650.25
2022-08-14T18:06:07.603Z,97646.19
2022-08-14T18:08:34.298Z,97643.44
2022-08-14T18:11:04.606Z,97651.03
2022-08-14T18:13:50.961Z,97661.44
2022-08-14T18:16:22.997Z,97657.44
2022-08-14T18:18:53.096Z,97663.78
2022-08-14T18:21:56.198Z,97663.41
2022-08-14T18:24:20.114Z,97666.53
2022-08-14T18:27:23.246Z,97673.69
2022-08-14T18:29:56.571Z,97675.88
2022-08-14T18:32:33.386Z,97660.91
2022-08-14T18:35:13.222Z,97663.03
2022-08-14T18:37:55.929Z,97668.94
2022-08-14T18:40:34.927Z,97666.28
2022-08-14T18:43:08.117Z,97669.47
2022-08-14T18:45:41.131Z,97662.44
2022-08-14T18:48:21.152Z,97657.22
2022-08-14T18:51:03.333Z,97650.31
2022-08-14T18:53:59.625Z,97656.38
2022-08-14T18:56:59.220Z,97650.94
2022-08-14T18:59:45.943Z,97659.19
2022-08-14T19:02:31.196Z,97669.28
2022-08-14T19:05:02.660Z,97660.00
2022-08-14T19:07:33.320Z,97663.59
2022-08-14T19:10:16.773Z,97649.16
2022-08-14T19:13:01.436Z,97648.13
2022-08-14T19:15:37.866Z,97648.03
2022-08-14T19:18:31.460Z,97634.94
2022-08-14T19:21:25.150Z,97634.66
2022-08-14T19:24:44.235Z,97616.16
2022-08-14T19:27:26.211Z,97613.81
2022-08-14T19:30:19.791Z,97612.84
2022-08-14T19:32:55.885Z,97644.94
2022-08-14T19:35:49.501Z,97686.53
2022-08-14T19:38:45.830Z,97716.75
2022-08-14T19:41:17.214Z,97691.53
2022-08-14T19:43:56.244Z,97671.81
2022-08-14T19:46:38.069Z,97646.56
2022-08-14T19:50:08.059Z,97648.22
2022-08-14T19:52:22.711Z,97679.41
2022-08-14T19:54:53.319Z,97693.81
2022-08-14T19:57:29.018Z,97693.75
2022-08-14T20:00:29.491Z,97693.66
2022-08-14T20:03:14.248Z,97687.38
2022-08-14T20:05:49.149Z,97689.16
2022-08-14T20:10:59.613Z,97685.50
2022-08-14T20:11:58.612Z,97675.81
2022-08-14T20:14:29.623Z,97677.13
2022-08-14T20:17:06.160Z,97675.69
2022-08-14T20:19:41.767Z,97684.56
2022-08-14T20:22:36.465Z,97680.69
2022-08-14T20:25:24.328Z,97660.97
2022-08-14T20:27:59.598Z,97646.19
2022-08-14T20:30:33.726Z,97638.44
2022-08-14T20:33:11.654Z,97635.38
2022-08-14T20:35:42.787Z,97619.34
2022-08-14T20:38:31.031Z,97624.00
2022-08-14T20:41:09.479Z,97631.81
2022-08-14T20:44:00.827Z,97625.81
2022-08-14T20:46:38.820Z,97619.78
2022-08-14T20:49:10.370Z,97627.34
2022-08-14T20:51:58.896Z,97635.38
2022-08-14T20:54:36.376Z,97620.84
2022-08-14T20:57:18.950Z,97617.81
2022-08-14T20:59:57.626Z,97625.25
2022-08-14T21:02:46.419Z,97621.97
2022-08-14T21:05:33.313Z,97618.97
2022-08-14T21:08:05.624Z,97616.97
2022-08-14T21:10:43.827Z,97613.31
2022-08-14T21:14:09.180Z,97599.94
2022-08-14T21:16:34.761Z,97596.41
2022-08-14T21:19:01.977Z,97602.19
2022-08-14T21:21:40.455Z,97594.66
2022-08-14T21:24:40.129Z,97604.41
2022-08-14T21:27:12.629Z,97610.50
2022-08-14T21:29:54.298Z,97611.78
2022-08-14T21:32:35.796Z,97626.66
2022-08-14T21:35:09.924Z,97625.00
2022-08-14T21:37:48.155Z,97630.56
2022-08-14T21:40:42.507Z,97628.00
2022-08-14T21:43:18.184Z,97636.50
2022-08-14T21:45:58.774Z,97628.72
2022-08-14T21:48:34.023Z,97630.09
2022-08-14T21:51:53.238Z,97630.28
2022-08-14T21:54:01.358Z,97639.88
2022-08-14T21:56:39.672Z,97641.28
2022-08-14T21:59:28.965Z,97638.56
2022-08-14T22:02:03.464Z,97634.13
2022-08-14T22:04:41.524Z,97633.75
2022-08-14T22:07:18.111Z,97641.91
2022-08-14T22:09:54.833Z,97632.53
2022-08-14T22:12:58.438Z,97633.25
2022-08-14T22:15:19.287Z,97632.50
2022-08-14T22:17:54.248Z,97635.78
2022-08-14T22:20:29.290Z,97628.50
2022-08-14T22:23:06.779Z,97630.63
2022-08-14T22:25:41.043Z,97621.06
2022-08-14T22:28:16.840Z,97627.28
2022-08-14T22:30:48.323Z,97618.94
2022-08-14T22:33:31.567Z,97623.81
2022-08-14T22:36:25.378Z,97624.28
2022-08-14T22:38:56.481Z,97627.25
2022-08-14T22:41:32.692Z,97619.44
2022-08-14T22:44:10.965Z,97618.69
2022-08-14T22:46:43.338Z,97614.91
2022-08-14T22:49:15.537Z,97612.06
2022-08-14T22:51:56.674Z,97621.28
2022-08-14T22:54:52.058Z,97614.91
2022-08-14T22:57:17.271Z,97624.16
2022-08-14T22:59:47.490Z,97624.47
2022-08-14T23:02:30.211Z,97618.34
2022-08-14T23:05:04.862Z,97623.84
2022-08-14T23:08:58.527Z,97622.69
2022-08-14T23:10:32.543Z,97615.44
2022-08-14T23:13:05.826Z,97615.31
2022-08-14T23:15:37.731Z,97615.94
2022-08-14T23:18:07.533Z,97613.09
2022-08-14T23:20:44.377Z,97615.16
2022-08-14T23:23:22.911Z,97615.25
2022-08-14T23:25:59.024Z,97616.13
2022-08-14T23:28:34.964Z,97621.78
2022-08-14T23:31:35.016Z,97630.69
2022-08-14T23:34:08.217Z,97630.16
2022-08-14T23:36:53.015Z,97635.81
2022-08-14T23:39:34.552Z,97643.25
2022-08-14T23:42:10.125Z,97637.88
2022-08-14T23:44:45.883Z,97648.84
2022-08-14T23:47:26.055Z,97650.41
2022-08-14T23:50:03.303Z,97662.91
2022-08-14T23:52:55.742Z,97666.50
2022-08-14T23:55:33.986Z,97678.88
2022-08-14T23:58:03.707Z,97684.41
